createdAt,value
2019-05-17T00:02:18.156Z,88.63
2019-05-17T00:04:53.315Z,88.59
2019-05-17T00:07:37.005Z,88.59
2019-05-17T00:10:11.552Z,88.58
2019-05-17T00:12:46.921Z,88.62
2019-05-17T00:15:29.010Z,88.76
2019-05-17T00:18:03.483Z,88.72
2019-05-17T00:20:37.673Z,88.73
2019-05-17T00:23:12.028Z,88.80
2019-05-17T00:26:00.106Z,88.89
2019-05-17T00:28:33.969Z,89.03
2019-05-17T00:31:20.405Z,89.12
2019-05-17T00:33:53.906Z,89.30
2019-05-17T00:36:27.664Z,89.21
2019-05-17T00:39:01.989Z,88.97
2019-05-17T00:41:37.742Z,89.06
2019-05-17T00:44:21.145Z,89.16
2019-05-17T00:46:58.642Z,89.05
2019-05-17T00:49:30.350Z,89.02
2019-05-17T00:52:07.028Z,89.10
2019-05-17T00:54:40.959Z,89.06
2019-05-17T00:57:29.904Z,89.06
2019-05-17T01:00:13.395Z,88.87
2019-05-17T01:02:47.057Z,88.87
2019-05-17T01:05:20.304Z,88.92
2019-05-17T01:07:53.788Z,88.99
2019-05-17T01:10:39.054Z,89.21
2019-05-17T01:13:13.128Z,89.40
2019-05-17T01:15:47.411Z,89.45
2019-05-17T01:18:21.639Z,89.47
2019-05-17T01:21:07.165Z,89.47
2019-05-17T01:23:39.295Z,89.45
2019-05-17T01:26:12.509Z,89.53
2019-05-17T01:28:46.828Z,89.57
2019-05-17T01:31:37.364Z,89.56
2019-05-17T01:34:22.552Z,89.40
2019-05-17T01:37:06.477Z,89.43
2019-05-17T01:39:40.149Z,89.31
2019-05-17T01:42:13.652Z,89.25
2019-05-17T01:44:47.792Z,89.24
2019-05-17T01:47:30.723Z,89.37
2019-05-17T01:50:12.936Z,89.37
2019-05-17T01:52:46.557Z,89.31
2019-05-17T01:55:20.260Z,89.33
2019-05-17T01:57:53.564Z,89.31
2019-05-17T02:00:27.364Z,89.32
2019-05-17T02:03:00.859Z,89.47
2019-05-17T02:05:34.138Z,89.47
2019-05-17T02:08:07.439Z,89.43
2019-05-17T02:10:41.346Z,89.50
2019-05-17T02:13:16.450Z,89.54
2019-05-17T02:15:50.268Z,89.51
2019-05-17T02:18:26.424Z,89.63
2019-05-17T02:21:08.949Z,89.75
2019-05-17T02:23:52.143Z,89.80
2019-05-17T02:26:26.686Z,89.78
2019-05-17T02:29:01.431Z,89.71
2019-05-17T02:31:35.066Z,89.66
2019-05-17T02:34:09.880Z,89.58
2019-05-17T02:36:43.348Z,89.65
2019-05-17T02:39:17.565Z,89.66
2019-05-17T02:41:53.325Z,89.76
2019-05-17T02:44:36.133Z,89.81
2019-05-17T02:47:18.778Z,89.67
2019-05-17T02:50:07.607Z,89.67
2019-05-17T02:52:52.803Z,89.74
2019-05-17T02:55:34.240Z,89.86
2019-05-17T02:58:06.612Z,89.96
2019-05-17T03:00:43.977Z,90.07
2019-05-17T03:03:24.572Z,90.23
2019-05-17T03:05:57.929Z,90.37
2019-05-17T03:08:34.170Z,90.30
2019-05-17T03:11:06.426Z,90.30
2019-05-17T03:13:39.608Z,90.27
2019-05-17T03:16:14.636Z,90.25
2019-05-17T03:18:48.531Z,90.22
2019-05-17T03:21:22.902Z,90.29
2019-05-17T03:23:55.458Z,90.30
2019-05-17T03:26:38.232Z,90.24
2019-05-17T03:29:22.782Z,90.19
2019-05-17T03:32:00.004Z,90.27
2019-05-17T03:34:36.976Z,90.38
2019-05-17T03:37:17.392Z,90.29
2019-05-17T03:40:04.557Z,90.32
2019-05-17T03:42:44.343Z,90.43
2019-05-17T03:45:17.846Z,90.41
2019-05-17T03:47:53.181Z,90.42
2019-05-17T03:50:36.541Z,90.33
2019-05-17T03:53:13.185Z,90.42
2019-05-17T03:55:45.622Z,90.47
2019-05-17T03:58:19.222Z,90.48
2019-05-17T04:00:53.531Z,90.64
2019-05-17T04:03:31.346Z,90.71
2019-05-17T04:06:04.230Z,90.76
2019-05-17T04:08:47.109Z,90.80
2019-05-17T04:11:36.385Z,90.83
2019-05-17T04:14:18.420Z,90.96
2019-05-17T04:16:53.744Z,91.06
2019-05-17T04:19:36.533Z,91.06
2019-05-17T04:22:13.440Z,91.10
2019-05-17T04:24:57.876Z,90.90
2019-05-17T04:27:43.594Z,90.80
2019-05-17T04:30:27.400Z,90.71
2019-05-17T04:33:03.522Z,90.73
2019-05-17T04:35:45.983Z,90.83
2019-05-17T04:38:28.886Z,90.90
2019-05-17T04:41:13.310Z,90.80
2019-05-17T04:44:02.424Z,90.64
2019-05-17T04:46:34.673Z,90.69
2019-05-17T04:49:08.149Z,90.82
2019-05-17T04:51:43.809Z,90.83
2019-05-17T04:54:17.371Z,90.89
2019-05-17T04:56:53.261Z,90.78
2019-05-17T04:59:35.817Z,90.61
2019-05-17T05:02:12.936Z,90.65
2019-05-17T05:04:44.670Z,90.63
2019-05-17T05:07:18.148Z,90.67
2019-05-17T05:09:52.508Z,90.61
2019-05-17T05:12:26.824Z,90.53
2019-05-17T05:15:03.539Z,90.37
2019-05-17T05:17:52.730Z,90.42
2019-05-17T05:20:25.118Z,90.50
2019-05-17T05:23:07.723Z,90.61
2019-05-17T05:25:53.033Z,90.60
2019-05-17T05:28:35.886Z,90.45
2019-05-17T05:31:18.698Z,90.50
2019-05-17T05:34:01.992Z,90.53
2019-05-17T05:36:52.512Z,90.47
2019-05-17T05:39:27.166Z,90.57
2019-05-17T05:42:14.001Z,90.47
2019-05-17T05:45:04.683Z,90.40
2019-05-17T05:47:49.406Z,90.46
2019-05-17T05:50:23.567Z,90.35
2019-05-17T05:53:12.967Z,90.01
2019-05-17T05:55:46.944Z,89.98
2019-05-17T05:58:23.887Z,89.90
2019-05-17T06:01:05.625Z,89.54
2019-05-17T06:03:41.447Z,89.09
2019-05-17T06:06:32.221Z,88.57
2019-05-17T06:09:08.092Z,88.28
2019-05-17T06:11:53.550Z,87.68
2019-05-17T06:14:26.890Z,87.37
2019-05-17T06:17:03.087Z,86.93
2019-05-17T06:19:36.233Z,86.70
2019-05-17T06:22:11.866Z,86.63
2019-05-17T06:24:46.440Z,86.50
2019-05-17T06:27:21.525Z,86.22
2019-05-17T06:29:55.239Z,85.63
2019-05-17T06:32:31.624Z,85.44
2019-05-17T06:35:14.471Z,85.38
2019-05-17T06:37:53.597Z,85.43
2019-05-17T06:40:37.472Z,85.00
2019-05-17T06:43:15.844Z,84.81
2019-05-17T06:45:55.558Z,84.51
2019-05-17T06:48:44.067Z,83.51
2019-05-17T06:51:22.174Z,83.58
2019-05-17T06:54:11.924Z,83.26
2019-05-17T06:56:59.330Z,83.43
2019-05-17T06:59:48.446Z,83.45
2019-05-17T07:02:25.720Z,83.54
2019-05-17T07:05:19.942Z,83.72
2019-05-17T07:07:57.157Z,83.53
2019-05-17T07:10:36.177Z,83.22
2019-05-17T07:13:14.592Z,82.31
2019-05-17T07:15:52.680Z,82.53
2019-05-17T07:18:30.875Z,82.32
2019-05-17T07:21:05.743Z,82.58
2019-05-17T07:23:44.705Z,82.28
2019-05-17T07:26:23.288Z,81.32
2019-05-17T07:29:02.894Z,80.40
2019-05-17T07:31:51.570Z,80.04
2019-05-17T07:34:30.918Z,79.79
2019-05-17T07:37:19.801Z,79.97
2019-05-17T07:40:12.215Z,79.36
2019-05-17T07:42:51.911Z,78.96
2019-05-17T07:45:40.511Z,77.99
2019-05-17T07:48:31.450Z,77.32
2019-05-17T07:51:19.567Z,77.30
2019-05-17T07:53:59.765Z,76.63
2019-05-17T07:56:40.174Z,74.16
2019-05-17T07:59:29.331Z,74.83
2019-05-17T08:02:03.509Z,74.54
2019-05-17T08:04:37.445Z,74.06
2019-05-17T08:07:11.411Z,74.34
2019-05-17T08:09:46.680Z,74.72
2019-05-17T08:12:20.055Z,74.62
2019-05-17T08:14:53.891Z,74.23
2019-05-17T08:17:27.616Z,74.30
2019-05-17T08:20:01.147Z,72.93
2019-05-17T08:22:34.705Z,72.23
2019-05-17T08:25:10.004Z,72.55
2019-05-17T08:27:43.628Z,71.91
2019-05-17T08:30:16.379Z,72.29
2019-05-17T08:32:50.545Z,73.02
2019-05-17T08:35:24.124Z,72.78
2019-05-17T08:38:00.328Z,71.56
2019-05-17T08:40:33.593Z,71.38
2019-05-17T08:43:16.512Z,69.31
2019-05-17T08:46:01.787Z,69.54
2019-05-17T08:48:50.157Z,69.84
2019-05-17T08:51:24.059Z,70.81
2019-05-17T08:53:59.843Z,68.55
2019-05-17T08:56:32.703Z,67.30
2019-05-17T08:59:06.425Z,66.28
2019-05-17T09:01:41.789Z,65.96
2019-05-17T09:04:17.263Z,67.11
2019-05-17T09:06:50.684Z,65.12
2019-05-17T09:09:25.986Z,67.20
2019-05-17T09:11:59.969Z,66.03
2019-05-17T09:14:43.157Z,63.17
2019-05-17T09:17:29.854Z,63.98
2019-05-17T09:20:02.659Z,62.67
2019-05-17T09:22:35.865Z,62.73
2019-05-17T09:25:15.018Z,64.19
2019-05-17T09:27:53.254Z,63.32
2019-05-17T09:30:41.584Z,64.44
2019-05-17T09:33:15.674Z,63.74
2019-05-17T09:36:00.447Z,62.03
2019-05-17T09:38:33.323Z,63.89
2019-05-17T09:41:09.204Z,63.89
2019-05-17T09:43:41.910Z,64.89
2019-05-17T09:46:15.932Z,64.61
2019-05-17T09:48:50.477Z,64.70
2019-05-17T09:51:24.004Z,65.48
2019-05-17T09:53:59.896Z,66.18
2019-05-17T09:56:33.648Z,65.21
2019-05-17T09:59:15.878Z,63.86
2019-05-17T10:01:49.672Z,61.97
2019-05-17T10:04:22.822Z,61.03
2019-05-17T10:06:56.720Z,61.09
2019-05-17T10:09:30.527Z,59.34
2019-05-17T10:12:05.391Z,59.27
2019-05-17T10:14:38.851Z,60.67
2019-05-17T10:17:12.109Z,59.46
2019-05-17T10:19:55.130Z,58.86
2019-05-17T10:22:30.398Z,58.14
2019-05-17T10:25:03.824Z,59.87
2019-05-17T10:27:37.531Z,59.07
2019-05-17T10:30:11.410Z,58.09
2019-05-17T10:32:44.998Z,60.21
2019-05-17T10:35:19.964Z,60.06
2019-05-17T10:37:53.957Z,60.98
2019-05-17T10:40:29.774Z,60.48
2019-05-17T10:43:03.607Z,59.04
2019-05-17T10:45:53.654Z,60.41
2019-05-17T10:48:29.900Z,61.05
2019-05-17T10:51:14.442Z,61.66
2019-05-17T10:53:48.090Z,62.51
2019-05-17T10:56:23.741Z,62.10
2019-05-17T10:58:59.978Z,61.12
2019-05-17T11:01:45.068Z,61.00
2019-05-17T11:04:27.355Z,61.66
2019-05-17T11:07:00.936Z,61.04
2019-05-17T11:09:34.232Z,60.07
2019-05-17T11:12:07.433Z,60.65
2019-05-17T11:14:52.220Z,60.50
2019-05-17T11:17:29.369Z,61.25
2019-05-17T11:20:02.928Z,60.68
2019-05-17T11:22:36.522Z,59.98
2019-05-17T11:25:08.707Z,60.31
2019-05-17T11:27:42.867Z,59.62
2019-05-17T11:30:16.175Z,59.97
2019-05-17T11:32:50.258Z,61.44
2019-05-17T11:35:25.521Z,60.38
2019-05-17T11:37:59.400Z,60.44
2019-05-17T11:40:41.682Z,59.35
2019-05-17T11:43:15.463Z,58.48
2019-05-17T11:45:49.724Z,57.71
2019-05-17T11:48:32.692Z,58.04
2019-05-17T11:51:06.009Z,58.11
2019-05-17T11:53:48.252Z,59.24
2019-05-17T11:56:21.741Z,58.16
2019-05-17T11:58:56.147Z,57.72
2019-05-17T12:01:29.746Z,58.49
2019-05-17T12:04:12.175Z,58.99
2019-05-17T12:06:56.981Z,59.52
2019-05-17T12:09:37.697Z,58.53
2019-05-17T12:12:09.645Z,59.00
2019-05-17T12:14:52.544Z,59.43
2019-05-17T12:17:26.561Z,58.80
2019-05-17T12:20:00.167Z,60.82
2019-05-17T12:22:33.882Z,60.28
2019-05-17T12:25:07.484Z,59.72
2019-05-17T12:27:42.008Z,59.72
2019-05-17T12:30:30.467Z,60.29
2019-05-17T12:33:02.912Z,59.95
2019-05-17T12:35:38.341Z,60.24
2019-05-17T12:38:11.990Z,59.07
2019-05-17T12:40:45.822Z,59.68
2019-05-17T12:43:19.641Z,57.93
2019-05-17T12:46:00.843Z,58.67
2019-05-17T12:48:28.869Z,58.70
2019-05-17T12:51:02.058Z,59.25
2019-05-17T12:53:35.619Z,59.67
2019-05-17T12:56:09.499Z,59.50
2019-05-17T12:58:42.328Z,59.25
2019-05-17T13:01:15.981Z,60.78
2019-05-17T13:03:47.736Z,61.11
2019-05-17T13:06:30.629Z,61.51
2019-05-17T13:09:14.913Z,61.79
2019-05-17T13:11:48.709Z,60.39
2019-05-17T13:14:37.624Z,61.71
2019-05-17T13:17:20.816Z,60.84
2019-05-17T13:20:03.305Z,59.79
2019-05-17T13:22:46.070Z,60.34
2019-05-17T13:25:34.838Z,58.80
2019-05-17T13:28:18.088Z,58.92
2019-05-17T13:30:51.001Z,59.19
2019-05-17T13:33:29.163Z,59.13
2019-05-17T13:36:12.957Z,59.42
2019-05-17T13:38:46.648Z,58.83
2019-05-17T13:41:29.048Z,59.77
2019-05-17T13:44:02.242Z,60.91
2019-05-17T13:46:35.913Z,59.38
2019-05-17T13:49:09.761Z,59.55
2019-05-17T13:51:51.873Z,59.79
2019-05-17T13:54:25.928Z,58.83
2019-05-17T13:57:00.053Z,58.83
2019-05-17T13:59:38.420Z,59.87
2019-05-17T14:02:13.167Z,58.40
2019-05-17T14:04:47.673Z,58.63
2019-05-17T14:07:20.379Z,58.71
2019-05-17T14:09:55.450Z,57.62
2019-05-17T14:12:32.741Z,58.40
2019-05-17T14:15:07.599Z,58.38
2019-05-17T14:17:41.203Z,58.21
2019-05-17T14:20:15.913Z,57.12
2019-05-17T14:23:02.878Z,56.08
2019-05-17T14:25:35.342Z,56.08
2019-05-17T14:28:17.836Z,56.80
2019-05-17T14:30:53.695Z,56.69
2019-05-17T14:33:26.925Z,56.62
2019-05-17T14:36:12.006Z,57.24
2019-05-17T14:38:45.322Z,58.07
2019-05-17T14:41:19.882Z,59.33
2019-05-17T14:43:53.561Z,59.23
2019-05-17T14:46:27.122Z,59.54
2019-05-17T14:49:01.272Z,59.14
2019-05-17T14:51:35.260Z,59.57
2019-05-17T14:54:20.290Z,60.23
2019-05-17T14:57:08.840Z,59.81
2019-05-17T14:59:42.728Z,59.55
2019-05-17T15:02:16.138Z,59.82
2019-05-17T15:05:01.627Z,59.31
2019-05-17T15:07:37.109Z,58.91
2019-05-17T15:10:18.985Z,58.34
2019-05-17T15:12:52.934Z,57.79
2019-05-17T15:15:27.042Z,58.74
2019-05-17T15:18:00.439Z,57.70
2019-05-17T15:20:44.592Z,57.95
2019-05-17T15:23:27.523Z,58.17
2019-05-17T15:26:15.951Z,58.77
2019-05-17T15:28:49.439Z,59.23
2019-05-17T15:31:23.149Z,58.27
2019-05-17T15:34:06.005Z,58.59
2019-05-17T15:36:39.204Z,58.52
2019-05-17T15:39:13.485Z,58.34
2019-05-17T15:41:45.659Z,59.10
2019-05-17T15:44:31.073Z,60.19
2019-05-17T15:47:03.858Z,60.06
2019-05-17T15:49:37.963Z,59.01
2019-05-17T15:52:12.396Z,58.55
2019-05-17T15:54:48.552Z,58.76
2019-05-17T15:57:21.500Z,59.30
2019-05-17T15:59:55.111Z,59.34
2019-05-17T16:02:28.425Z,58.78
2019-05-17T16:05:19.051Z,58.31
2019-05-17T16:08:04.213Z,58.77
2019-05-17T16:10:49.040Z,59.02
2019-05-17T16:13:22.764Z,58.42
2019-05-17T16:15:58.156Z,59.01
2019-05-17T16:18:31.442Z,58.23
2019-05-17T16:21:04.712Z,59.37
2019-05-17T16:23:37.347Z,58.69
2019-05-17T16:26:10.546Z,58.69
2019-05-17T16:28:44.218Z,59.35
2019-05-17T16:31:18.147Z,59.18
2019-05-17T16:33:51.747Z,58.17
2019-05-17T16:36:25.266Z,58.22
2019-05-17T16:38:58.548Z,57.74
2019-05-17T16:41:32.579Z,56.37
2019-05-17T16:44:05.498Z,54.77
2019-05-17T16:46:39.911Z,54.93
2019-05-17T16:49:22.828Z,54.85
2019-05-17T16:51:58.098Z,55.58
2019-05-17T16:54:40.395Z,56.25
2019-05-17T16:57:13.980Z,57.19
2019-05-17T16:59:47.582Z,58.68
2019-05-17T17:02:21.682Z,58.31
2019-05-17T17:05:03.645Z,58.40
2019-05-17T17:07:41.841Z,58.90
2019-05-17T17:10:24.334Z,57.81
2019-05-17T17:12:59.257Z,57.65
2019-05-17T17:15:32.806Z,56.24
2019-05-17T17:18:07.418Z,56.06
2019-05-17T17:20:40.164Z,55.70
2019-05-17T17:23:12.972Z,56.93
2019-05-17T17:25:59.331Z,59.32
2019-05-17T17:28:33.549Z,59.74
2019-05-17T17:31:10.831Z,60.26
2019-05-17T17:33:44.836Z,60.61
2019-05-17T17:36:19.567Z,61.47
2019-05-17T17:38:51.524Z,62.11
2019-05-17T17:41:26.645Z,62.11
2019-05-17T17:44:02.146Z,62.24
2019-05-17T17:46:36.072Z,62.24
2019-05-17T17:49:11.328Z,60.07
2019-05-17T17:51:54.104Z,62.11
2019-05-17T17:54:39.502Z,62.61
2019-05-17T17:57:33.292Z,63.26
2019-05-17T18:00:08.177Z,63.34
2019-05-17T18:02:43.697Z,63.62
2019-05-17T18:05:17.973Z,64.39
2019-05-17T18:07:50.148Z,65.01
2019-05-17T18:10:34.201Z,65.58
2019-05-17T18:13:08.789Z,65.66
2019-05-17T18:15:45.323Z,65.96
2019-05-17T18:18:19.008Z,65.96
2019-05-17T18:20:52.281Z,66.34
2019-05-17T18:23:51.040Z,66.52
2019-05-17T18:26:24.736Z,66.47
2019-05-17T18:28:58.523Z,67.09
2019-05-17T18:31:31.167Z,67.69
2019-05-17T18:34:05.810Z,68.44
2019-05-17T18:36:38.670Z,68.65
2019-05-17T18:39:31.720Z,69.04
2019-05-17T18:42:16.579Z,69.38
2019-05-17T18:45:01.759Z,70.14
2019-05-17T18:47:50.503Z,70.60
2019-05-17T18:50:31.008Z,70.77
2019-05-17T18:53:20.644Z,71.47
2019-05-17T18:55:55.625Z,71.86
2019-05-17T18:58:40.377Z,72.22
2019-05-17T19:01:25.163Z,72.03
2019-05-17T19:03:59.102Z,72.40
2019-05-17T19:06:35.209Z,72.65
2019-05-17T19:09:09.236Z,72.66
2019-05-17T19:11:42.865Z,72.75
2019-05-17T19:14:17.240Z,72.64
2019-05-17T19:17:02.775Z,72.91
2019-05-17T19:19:37.434Z,73.09
2019-05-17T19:22:11.092Z,73.30
2019-05-17T19:24:56.648Z,73.73
2019-05-17T19:27:30.624Z,73.83
2019-05-17T19:30:18.343Z,73.36
2019-05-17T19:32:53.746Z,73.60
2019-05-17T19:35:38.963Z,73.87
2019-05-17T19:38:10.840Z,73.98
2019-05-17T19:41:03.129Z,74.02
2019-05-17T19:43:41.576Z,74.18
2019-05-17T19:46:15.909Z,73.94
2019-05-17T19:49:02.646Z,74.70
2019-05-17T19:51:38.390Z,74.99
2019-05-17T19:54:14.950Z,75.38
2019-05-17T19:57:07.586Z,75.56
2019-05-17T19:59:47.311Z,75.70
2019-05-17T20:02:28.625Z,75.61
2019-05-17T20:05:13.513Z,75.85
2019-05-17T20:07:51.150Z,76.45
2019-05-17T20:10:33.165Z,76.63
2019-05-17T20:13:16.904Z,76.43
2019-05-17T20:15:51.782Z,76.34
2019-05-17T20:18:26.046Z,76.44
2019-05-17T20:21:00.966Z,76.58
2019-05-17T20:23:43.667Z,76.72
2019-05-17T20:26:28.663Z,76.80
2019-05-17T20:29:14.675Z,76.86
2019-05-17T20:32:15.312Z,76.85
2019-05-17T20:34:56.601Z,76.97
2019-05-17T20:37:52.209Z,77.02
2019-05-17T20:40:25.544Z,77.21
2019-05-17T20:43:03.942Z,77.49
2019-05-17T20:45:39.378Z,77.60
2019-05-17T20:51:15.762Z,77.39
2019-05-17T20:54:06.466Z,77.49
2019-05-17T20:56:44.710Z,77.66
2019-05-17T20:59:21.825Z,77.41
2019-05-17T21:02:08.669Z,77.21
2019-05-17T21:04:45.435Z,77.53
2019-05-17T21:07:23.984Z,77.93
2019-05-17T21:09:57.391Z,78.14
2019-05-17T21:12:34.225Z,78.41
2019-05-17T21:15:13.917Z,78.84
2019-05-17T21:17:51.362Z,79.04
2019-05-17T21:20:24.744Z,78.80
2019-05-17T21:22:59.262Z,78.20
2019-05-17T21:25:54.317Z,77.92
2019-05-17T21:28:30.463Z,78.02
2019-05-17T21:31:07.797Z,78.48
2019-05-17T21:33:43.174Z,78.84
2019-05-17T21:36:16.352Z,78.66
2019-05-17T21:38:49.633Z,78.37
2019-05-17T21:41:24.140Z,78.04
2019-05-17T21:43:57.461Z,78.43
2019-05-17T21:46:31.370Z,78.74
2019-05-17T21:49:04.742Z,78.88
2019-05-17T21:51:38.925Z,78.79
2019-05-17T21:54:30.854Z,78.01
2019-05-17T21:57:16.949Z,77.99
2019-05-17T22:00:08.688Z,78.35
2019-05-17T22:02:43.989Z,78.36
2019-05-17T22:05:36.381Z,78.30
2019-05-17T22:08:27.414Z,78.53
2019-05-17T22:11:15.739Z,78.70
2019-05-17T22:14:01.911Z,78.88
2019-05-17T22:16:36.560Z,79.06
2019-05-17T22:19:11.839Z,79.17
2019-05-17T22:21:47.899Z,79.55
2019-05-17T22:24:38.676Z,79.27
2019-05-17T22:27:12.972Z,79.01
2019-05-17T22:29:56.573Z,78.77
2019-05-17T22:32:32.208Z,79.13
2019-05-17T22:35:07.054Z,79.57
2019-05-17T22:37:41.086Z,79.86
2019-05-17T22:40:25.847Z,80.56
2019-05-17T22:42:59.975Z,80.85
2019-05-17T22:45:33.929Z,80.98
2019-05-17T22:48:24.348Z,81.00
2019-05-17T22:50:58.106Z,81.12
2019-05-17T22:53:50.063Z,81.19
2019-05-17T22:56:38.615Z,81.21
2019-05-17T22:59:30.997Z,81.27
2019-05-17T23:02:04.402Z,81.38
2019-05-17T23:04:39.637Z,81.48
2019-05-17T23:07:13.382Z,81.40
2019-05-17T23:09:46.867Z,81.69
2019-05-17T23:12:21.249Z,81.94
2019-05-17T23:14:59.450Z,82.28
2019-05-17T23:17:39.567Z,82.56
2019-05-17T23:20:13.384Z,82.62
2019-05-17T23:22:58.346Z,82.73
2019-05-17T23:25:32.646Z,82.92
2019-05-17T23:28:18.067Z,83.06
2019-05-17T23:30:51.720Z,83.29
2019-05-17T23:33:25.644Z,83.33
2019-05-17T23:35:59.308Z,83.34
2019-05-17T23:38:33.387Z,83.07
2019-05-17T23:41:06.651Z,82.84
2019-05-17T23:43:40.357Z,82.96
2019-05-17T23:46:14.821Z,83.04
2019-05-17T23:48:48.930Z,83.24
2019-05-17T23:51:23.121Z,83.28
2019-05-17T23:54:05.870Z,83.63
2019-05-17T23:56:40.669Z,83.91
2019-05-17T23:59:14.645Z,84.21
